sensor_id;sensor_type;location;lat;lon;timestamp;pressure;altitude;pressure_sealevel;temperature;humidity
60015;BME280;45867;52.480;6.056;2023-05-19T00:00:58;102826.53;;;6.57;100.00
60015;BME280;45867;52.480;6.056;2023-05-19T00:03:24;102825.94;;;6.55;100.00
60015;BME280;45867;52.480;6.056;2023-05-19T00:05:52;102825.22;;;6.46;100.00
60015;BME280;45867;52.480;6.056;2023-05-19T00:08:18;102826.50;;;6.50;100.00
60015;BME280;45867;52.480;6.056;2023-05-19T00:10:44;102828.91;;;6.52;100.00
60015;BME280;45867;52.480;6.056;2023-05-19T00:13:10;102822.34;;;6.41;100.00
60015;BME280;45867;52.480;6.056;2023-05-19T00:15:35;102818.28;;;6.38;100.00
60015;BME280;45867;52.480;6.056;2023-05-19T00:18:01;102821.47;;;6.55;100.00
60015;BME280;45867;52.480;6.056;2023-05-19T00:20:26;102819.66;;;6.56;100.00
60015;BME280;45867;52.480;6.056;2023-05-19T00:22:52;102822.66;;;6.53;100.00
60015;BME280;45867;52.480;6.056;2023-05-19T00:25:17;102815.97;;;6.50;100.00
60015;BME280;45867;52.480;6.056;2023-05-19T00:27:45;102799.16;;;6.30;100.00
60015;BME280;45867;52.480;6.056;2023-05-19T00:30:11;102817.78;;;6.28;100.00
60015;BME280;45867;52.480;6.056;2023-05-19T00:32:36;102814.66;;;6.18;100.00
60015;BME280;45867;52.480;6.056;2023-05-19T00:35:01;102804.88;;;6.12;100.00
60015;BME280;45867;52.480;6.056;2023-05-19T00:37:27;102805.13;;;6.17;100.00
60015;BME280;45867;52.480;6.056;2023-05-19T00:39:52;102806.75;;;6.18;100.00
60015;BME280;45867;52.480;6.056;2023-05-19T00:42:17;102796.59;;;6.15;100.00
60015;BME280;45867;52.480;6.056;2023-05-19T00:44:43;102796.84;;;6.20;100.00
60015;BME280;45867;52.480;6.056;2023-05-19T00:47:08;102793.53;;;6.11;100.00
60015;BME280;45867;52.480;6.056;2023-05-19T00:49:34;102787.38;;;6.04;100.00
60015;BME280;45867;52.480;6.056;2023-05-19T00:52:00;102789.38;;;6.02;100.00
60015;BME280;45867;52.480;6.056;2023-05-19T00:54:27;102796.56;;;5.93;100.00
60015;BME280;45867;52.480;6.056;2023-05-19T00:56:53;102788.31;;;5.96;100.00
60015;BME280;45867;52.480;6.056;2023-05-19T00:59:19;102791.47;;;5.92;100.00
60015;BME280;45867;52.480;6.056;2023-05-19T01:01:45;102788.56;;;6.02;100.00
60015;BME280;45867;52.480;6.056;2023-05-19T01:04:15;102780.66;;;6.02;100.00
60015;BME280;45867;52.480;6.056;2023-05-19T01:06:41;102778.59;;;5.97;100.00
60015;BME280;45867;52.480;6.056;2023-05-19T01:09:06;102779.44;;;5.97;100.00
60015;BME280;45867;52.480;6.056;2023-05-19T01:11:33;102774.03;;;5.91;100.00
60015;BME280;45867;52.480;6.056;2023-05-19T01:13:58;102772.44;;;5.90;100.00
60015;BME280;45867;52.480;6.056;2023-05-19T01:16:28;102770.25;;;5.93;100.00
60015;BME280;45867;52.480;6.056;2023-05-19T01:32:52;102763.31;;;6.07;100.00
60015;BME280;45867;52.480;6.056;2023-05-19T01:35:20;102763.63;;;5.97;100.00
60015;BME280;45867;52.480;6.056;2023-05-19T01:37:47;102755.19;;;5.87;100.00
60015;BME280;45867;52.480;6.056;2023-05-19T01:40:14;102755.47;;;5.92;100.00
60015;BME280;45867;52.480;6.056;2023-05-19T01:42:40;102758.16;;;5.99;100.00
60015;BME280;45867;52.480;6.056;2023-05-19T01:45:06;102761.31;;;6.09;100.00
60015;BME280;45867;52.480;6.056;2023-05-19T01:47:35;102755.03;;;6.10;100.00
60015;BME280;45867;52.480;6.056;2023-05-19T01:50:04;102748.84;;;6.18;100.00
60015;BME280;45867;52.480;6.056;2023-05-19T01:52:30;102755.03;;;6.10;100.00
60015;BME280;45867;52.480;6.056;2023-05-19T01:54:55;102755.13;;;6.17;100.00
60015;BME280;45867;52.480;6.056;2023-05-19T02:00:17;102745.94;;;6.13;100.00
60015;BME280;45867;52.480;6.056;2023-05-19T02:03:21;102746.75;;;6.13;100.00
60015;BME280;45867;52.480;6.056;2023-05-19T02:05:54;102745.66;;;6.01;100.00
60015;BME280;45867;52.480;6.056;2023-05-19T02:08:29;102739.94;;;5.97;100.00
60015;BME280;45867;52.480;6.056;2023-05-19T02:11:02;102742.63;;;6.04;100.00
60015;BME280;45867;52.480;6.056;2023-05-19T02:13:36;102743.56;;;5.96;100.00
60015;BME280;45867;52.480;6.056;2023-05-19T02:16:04;102742.59;;;5.97;100.00
60015;BME280;45867;52.480;6.056;2023-05-19T02:18:31;102739.84;;;5.91;100.00
60015;BME280;45867;52.480;6.056;2023-05-19T02:20:57;102733.94;;;5.89;100.00
60015;BME280;45867;52.480;6.056;2023-05-19T02:23:23;102735.88;;;5.80;100.00
60015;BME280;45867;52.480;6.056;2023-05-19T02:25:48;102732.06;;;5.83;100.00
60015;BME280;45867;52.480;6.056;2023-05-19T02:28:13;102730.25;;;5.83;100.00
60015;BME280;45867;52.480;6.056;2023-05-19T02:30:42;102723.81;;;5.86;100.00
60015;BME280;45867;52.480;6.056;2023-05-19T02:33:07;102727.25;;;5.86;100.00
60015;BME280;45867;52.480;6.056;2023-05-19T02:35:32;102722.53;;;5.96;100.00
60015;BME280;45867;52.480;6.056;2023-05-19T02:37:58;102716.00;;;5.92;100.00
60015;BME280;45867;52.480;6.056;2023-05-19T02:40:23;102725.63;;;5.85;100.00
60015;BME280;45867;52.480;6.056;2023-05-19T02:42:49;102710.84;;;5.84;100.00
60015;BME280;45867;52.480;6.056;2023-05-19T02:45:14;102708.25;;;5.91;100.00
60015;BME280;45867;52.480;6.056;2023-05-19T02:47:39;102711.09;;;5.89;100.00
60015;BME280;45867;52.480;6.056;2023-05-19T02:50:06;102701.47;;;5.96;100.00
60015;BME280;45867;52.480;6.056;2023-05-19T02:52:31;102695.00;;;5.99;100.00
60015;BME280;45867;52.480;6.056;2023-05-19T02:54:57;102701.09;;;5.99;100.00
60015;BME280;45867;52.480;6.056;2023-05-19T02:57:22;102700.47;;;5.97;100.00
60015;BME280;45867;52.480;6.056;2023-05-19T02:59:48;102694.22;;;5.98;100.00
60015;BME280;45867;52.480;6.056;2023-05-19T03:02:13;102694.63;;;6.02;100.00
60015;BME280;45867;52.480;6.056;2023-05-19T03:04:38;102688.31;;;5.96;100.00
60015;BME280;45867;52.480;6.056;2023-05-19T03:07:06;102686.56;;;6.04;100.00
60015;BME280;45867;52.480;6.056;2023-05-19T03:09:34;102685.88;;;5.95;100.00
60015;BME280;45867;52.480;6.056;2023-05-19T03:12:00;102688.31;;;5.96;100.00
60015;BME280;45867;52.480;6.056;2023-05-19T03:14:28;102684.41;;;5.92;100.00
60015;BME280;45867;52.480;6.056;2023-05-19T03:16:53;102686.72;;;6.02;100.00
60015;BME280;45867;52.480;6.056;2023-05-19T03:19:20;102690.31;;;5.94;100.00
60015;BME280;45867;52.480;6.056;2023-05-19T03:21:45;102690.41;;;5.86;100.00
60015;BME280;45867;52.480;6.056;2023-05-19T03:24:11;102681.53;;;5.87;100.00
60015;BME280;45867;52.480;6.056;2023-05-19T03:26:37;102687.84;;;5.93;100.00
60015;BME280;45867;52.480;6.056;2023-05-19T03:29:02;102667.88;;;5.77;100.00
60015;BME280;45867;52.480;6.056;2023-05-19T03:31:27;102680.50;;;5.88;100.00
60015;BME280;45867;52.480;6.056;2023-05-19T03:33:54;102683.94;;;6.04;100.00
60015;BME280;45867;52.480;6.056;2023-05-19T03:36:22;102674.59;;;6.01;100.00
60015;BME280;45867;52.480;6.056;2023-05-19T03:38:47;102682.09;;;6.04;100.00
60015;BME280;45867;52.480;6.056;2023-05-19T03:41:13;102671.19;;;5.86;100.00
60015;BME280;45867;52.480;6.056;2023-05-19T03:43:38;102678.91;;;5.87;100.00
60015;BME280;45867;52.480;6.056;2023-05-19T03:46:03;102689.56;;;6.00;100.00
60015;BME280;45867;52.480;6.056;2023-05-19T03:48:29;102682.97;;;5.90;100.00
60015;BME280;45867;52.480;6.056;2023-05-19T03:50:54;102676.69;;;5.91;100.00
60015;BME280;45867;52.480;6.056;2023-05-19T03:53:20;102685.59;;;5.90;100.00
60015;BME280;45867;52.480;6.056;2023-05-19T03:55:45;102684.41;;;5.92;100.00
60015;BME280;45867;52.480;6.056;2023-05-19T03:58:11;102683.53;;;5.85;100.00
60015;BME280;45867;52.480;6.056;2023-05-19T04:00:39;102679.66;;;5.81;100.00
60015;BME280;45867;52.480;6.056;2023-05-19T04:03:04;102688.63;;;5.87;100.00
60015;BME280;45867;52.480;6.056;2023-05-19T04:05:29;102689.84;;;5.91;100.00
60015;BME280;45867;52.480;6.056;2023-05-19T04:07:55;102691.16;;;5.95;100.00
60015;BME280;45867;52.480;6.056;2023-05-19T04:10:20;102680.03;;;5.99;100.00
60015;BME280;45867;52.480;6.056;2023-05-19T04:12:46;102673.53;;;5.95;100.00
60015;BME280;45867;52.480;6.056;2023-05-19T04:15:12;102680.03;;;5.99;100.00
60015;BME280;45867;52.480;6.056;2023-05-19T04:17:37;102679.47;;;6.04;100.00
60015;BME280;45867;52.480;6.056;2023-05-19T04:20:03;102684.34;;;6.07;100.00
60015;BME280;45867;52.480;6.056;2023-05-19T04:22:30;102686.59;;;6.10;100.00
60015;BME280;45867;52.480;6.056;2023-05-19T04:24:55;102684.84;;;6.17;100.00
60015;BME280;45867;52.480;6.056;2023-05-19T04:27:22;102680.81;;;6.21;100.00
60015;BME280;45867;52.480;6.056;2023-05-19T04:29:47;102685.09;;;6.22;100.00
60015;BME280;45867;52.480;6.056;2023-05-19T04:32:13;102678.41;;;6.27;100.00
60015;BME280;45867;52.480;6.056;2023-05-19T04:34:42;102681.13;;;6.33;100.00
60015;BME280;45867;52.480;6.056;2023-05-19T04:37:12;102672.38;;;6.33;100.00
60015;BME280;45867;52.480;6.056;2023-05-19T04:39:44;102671.41;;;6.34;100.00
60015;BME280;45867;52.480;6.056;2023-05-19T04:42:10;102670.63;;;6.40;100.00
60015;BME280;45867;52.480;6.056;2023-05-19T04:44:37;102672.25;;;6.41;100.00
60015;BME280;45867;52.480;6.056;2023-05-19T04:47:06;102668.06;;;6.47;100.00
60015;BME280;45867;52.480;6.056;2023-05-19T04:49:35;102668.66;;;6.49;100.00
60015;BME280;45867;52.480;6.056;2023-05-19T04:52:08;102662.56;;;6.48;100.00
60015;BME280;45867;52.480;6.056;2023-05-19T04:54:37;102660.97;;;6.54;100.00
60015;BME280;45867;52.480;6.056;2023-05-19T04:57:03;102666.47;;;6.59;100.00
60015;BME280;45867;52.480;6.056;2023-05-19T04:59:28;102669.16;;;6.65;100.00
60015;BME280;45867;52.480;6.056;2023-05-19T05:01:54;102665.91;;;6.63;100.00
60015;BME280;45867;52.480;6.056;2023-05-19T05:04:20;102668.97;;;6.74;100.00
60015;BME280;45867;52.480;6.056;2023-05-19T05:06:46;102668.19;;;6.73;100.00
60015;BME280;45867;52.480;6.056;2023-05-19T05:09:16;102675.31;;;6.79;100.00
60015;BME280;45867;52.480;6.056;2023-05-19T05:11:42;102675.81;;;6.96;100.00
60015;BME280;45867;52.480;6.056;2023-05-19T05:14:08;102673.41;;;7.15;100.00
60015;BME280;45867;52.480;6.056;2023-05-19T05:16:34;102673.06;;;7.18;100.00
60015;BME280;45867;52.480;6.056;2023-05-19T05:19:00;102672.31;;;7.44;100.00
60015;BME280;45867;52.480;6.056;2023-05-19T05:21:27;102668.09;;;7.83;100.00
60015;BME280;45867;52.480;6.056;2023-05-19T05:23:52;102657.13;;;8.12;100.00
60015;BME280;45867;52.480;6.056;2023-05-19T05:26:19;102661.13;;;8.68;100.00
60015;BME280;45867;52.480;6.056;2023-05-19T05:28:53;102648.41;;;8.97;100.00
60015;BME280;45867;52.480;6.056;2023-05-19T05:31:18;102643.53;;;9.39;100.00
60015;BME280;45867;52.480;6.056;2023-05-19T05:33:44;102640.38;;;9.80;100.00
60015;BME280;45867;52.480;6.056;2023-05-19T05:36:09;102637.38;;;9.95;100.00
60015;BME280;45867;52.480;6.056;2023-05-19T05:38:34;102628.69;;;10.13;100.00
60015;BME280;45867;52.480;6.056;2023-05-19T05:41:00;102633.75;;;10.14;100.00
60015;BME280;45867;52.480;6.056;2023-05-19T05:43:27;102639.91;;;10.33;100.00
60015;BME280;45867;52.480;6.056;2023-05-19T05:45:52;102648.91;;;10.51;100.00
60015;BME280;45867;52.480;6.056;2023-05-19T05:48:18;102650.09;;;10.73;100.00
60015;BME280;45867;52.480;6.056;2023-05-19T05:50:44;102666.19;;;10.90;100.00
60015;BME280;45867;52.480;6.056;2023-05-19T05:53:16;102677.38;;;11.10;100.00
60015;BME280;45867;52.480;6.056;2023-05-19T05:55:42;102694.81;;;11.18;100.00
60015;BME280;45867;52.480;6.056;2023-05-19T05:58:08;102689.50;;;11.48;100.00
60015;BME280;45867;52.480;6.056;2023-05-19T06:00:36;102700.16;;;11.90;100.00
60015;BME280;45867;52.480;6.056;2023-05-19T06:03:01;102696.72;;;12.02;100.00
60015;BME280;45867;52.480;6.056;2023-05-19T06:05:27;102715.22;;;11.78;100.00
60015;BME280;45867;52.480;6.056;2023-05-19T06:07:52;102713.44;;;11.90;100.00
60015;BME280;45867;52.480;6.056;2023-05-19T06:10:21;102696.69;;;12.13;100.00
60015;BME280;45867;52.480;6.056;2023-05-19T06:12:46;102725.25;;;12.65;100.00
60015;BME280;45867;52.480;6.056;2023-05-19T06:15:12;102712.38;;;12.74;100.00
60015;BME280;45867;52.480;6.056;2023-05-19T06:17:37;102729.22;;;13.03;100.00
60015;BME280;45867;52.480;6.056;2023-05-19T06:20:03;102741.97;;;13.41;100.00
60015;BME280;45867;52.480;6.056;2023-05-19T06:22:30;102747.84;;;13.72;100.00
60015;BME280;45867;52.480;6.056;2023-05-19T06:24:58;102740.13;;;13.87;100.00
60015;BME280;45867;52.480;6.056;2023-05-19T06:27:23;102752.91;;;14.19;100.00
60015;BME280;45867;52.480;6.056;2023-05-19T06:29:49;102753.22;;;13.89;100.00
60015;BME280;45867;52.480;6.056;2023-05-19T06:32:14;102755.84;;;13.72;100.00
60015;BME280;45867;52.480;6.056;2023-05-19T06:34:40;102753.22;;;13.89;100.00
60015;BME280;45867;52.480;6.056;2023-05-19T06:37:05;102769.22;;;13.89;100.00
60015;BME280;45867;52.480;6.056;2023-05-19T06:39:31;102762.22;;;13.71;100.00
60015;BME280;45867;52.480;6.056;2023-05-19T06:41:56;102754.44;;;13.98;100.00
60015;BME280;45867;52.480;6.056;2023-05-19T06:44:21;102764.09;;;14.21;100.00
60015;BME280;45867;52.480;6.056;2023-05-19T06:46:47;102754.50;;;14.93;100.00
60015;BME280;45867;52.480;6.056;2023-05-19T06:49:12;102755.72;;;15.29;100.00
60015;BME280;45867;52.480;6.056;2023-05-19T06:51:37;102760.28;;;15.83;100.00
60015;BME280;45867;52.480;6.056;2023-05-19T06:54:06;102764.66;;;15.94;100.00
60015;BME280;45867;52.480;6.056;2023-05-19T06:56:31;102770.75;;;15.89;100.00
60015;BME280;45867;52.480;6.056;2023-05-19T06:58:56;102784.19;;;16.27;100.00
60015;BME280;45867;52.480;6.056;2023-05-19T07:01:22;102785.56;;;16.34;100.00
60015;BME280;45867;52.480;6.056;2023-05-19T07:03:47;102783.81;;;16.55;100.00
60015;BME280;45867;52.480;6.056;2023-05-19T07:06:12;102775.91;;;16.76;100.00
60015;BME280;45867;52.480;6.056;2023-05-19T07:08:38;102785.78;;;17.23;100.00
60015;BME280;45867;52.480;6.056;2023-05-19T07:11:03;102783.69;;;17.45;100.00
60015;BME280;45867;52.480;6.056;2023-05-19T07:13:29;102792.75;;;17.24;100.00
60015;BME280;45867;52.480;6.056;2023-05-19T07:15:55;102800.63;;;17.66;100.00
60015;BME280;45867;52.480;6.056;2023-05-19T07:18:21;102781.09;;;17.86;100.00
60015;BME280;45867;52.480;6.056;2023-05-19T07:20:46;102785.63;;;17.75;100.00
60015;BME280;45867;52.480;6.056;2023-05-19T07:23:12;102794.16;;;17.62;100.00
60015;BME280;45867;52.480;6.056;2023-05-19T07:25:37;102800.66;;;17.87;100.00
60015;BME280;45867;52.480;6.056;2023-05-19T07:28:02;102802.56;;;18.27;100.00
60015;BME280;45867;52.480;6.056;2023-05-19T07:30:28;102805.78;;;17.99;100.00
60015;BME280;45867;52.480;6.056;2023-05-19T07:32:54;102810.03;;;18.56;100.00
60015;BME280;45867;52.480;6.056;2023-05-19T07:35:19;102813.22;;;18.73;100.00
60015;BME280;45867;52.480;6.056;2023-05-19T07:37:47;102803.34;;;18.53;100.00
60015;BME280;45867;52.480;6.056;2023-05-19T07:40:13;102808.66;;;18.79;100.00
60015;BME280;45867;52.480;6.056;2023-05-19T07:42:38;102806.41;;;19.61;100.00
60015;BME280;45867;52.480;6.056;2023-05-19T07:45:04;102809.41;;;19.94;100.00
60015;BME280;45867;52.480;6.056;2023-05-19T07:47:30;102809.19;;;19.90;100.00
60015;BME280;45867;52.480;6.056;2023-05-19T07:49:55;102812.16;;;19.44;100.00
60015;BME280;45867;52.480;6.056;2023-05-19T07:52:20;102814.16;;;19.73;100.00
60015;BME280;45867;52.480;6.056;2023-05-19T07:54:46;102806.91;;;20.37;100.00
60015;BME280;45867;52.480;6.056;2023-05-19T07:57:11;102805.66;;;20.24;100.00
60015;BME280;45867;52.480;6.056;2023-05-19T07:59:38;102806.75;;;20.52;100.00
60015;BME280;45867;52.480;6.056;2023-05-19T08:02:04;102809.56;;;20.71;100.00
60015;BME280;45867;52.480;6.056;2023-05-19T08:04:29;102803.00;;;20.48;97.55
60015;BME280;45867;52.480;6.056;2023-05-19T08:06:55;102797.44;;;20.93;100.00
60015;BME280;45867;52.480;6.056;2023-05-19T08:09:20;102803.03;;;20.19;95.69
60015;BME280;45867;52.480;6.056;2023-05-19T08:11:45;102791.44;;;20.77;100.00
60015;BME280;45867;52.480;6.056;2023-05-19T08:14:11;102792.81;;;20.45;94.22
60015;BME280;45867;52.480;6.056;2023-05-19T08:16:37;102789.72;;;20.33;96.40
60015;BME280;45867;52.480;6.056;2023-05-19T08:19:02;102787.63;;;20.78;93.84
60015;BME280;45867;52.480;6.056;2023-05-19T08:21:30;102795.56;;;20.69;91.26
60015;BME280;45867;52.480;6.056;2023-05-19T08:23:58;102785.31;;;20.42;88.38
60015;BME280;45867;52.480;6.056;2023-05-19T08:26:24;102780.28;;;20.35;88.13
60015;BME280;45867;52.480;6.056;2023-05-19T08:28:50;102784.81;;;19.77;93.89
60015;BME280;45867;52.480;6.056;2023-05-19T08:31:15;102785.59;;;19.77;93.32
60015;BME280;45867;52.480;6.056;2023-05-19T08:33:42;102779.84;;;19.49;94.98
60015;BME280;45867;52.480;6.056;2023-05-19T08:36:07;102771.81;;;19.44;97.07
60015;BME280;45867;52.480;6.056;2023-05-19T08:38:33;102769.81;;;19.65;97.14
60015;BME280;45867;52.480;6.056;2023-05-19T08:40:58;102774.22;;;19.90;97.43
60015;BME280;45867;52.480;6.056;2023-05-19T08:43:24;102768.16;;;20.62;91.28
60015;BME280;45867;52.480;6.056;2023-05-19T08:45:49;102765.06;;;21.87;86.61
60015;BME280;45867;52.480;6.056;2023-05-19T08:48:16;102761.78;;;22.92;80.55
60015;BME280;45867;52.480;6.056;2023-05-19T08:50:48;102760.81;;;22.60;70.56
60015;BME280;45867;52.480;6.056;2023-05-19T08:53:19;102736.97;;;21.75;72.57
60015;BME280;45867;52.480;6.056;2023-05-19T08:56:20;102748.19;;;22.56;76.36
60015;BME280;45867;52.480;6.056;2023-05-19T08:58:48;102754.09;;;23.58;69.15
60015;BME280;45867;52.480;6.056;2023-05-19T09:01:13;102755.69;;;24.44;67.38
60015;BME280;45867;52.480;6.056;2023-05-19T09:03:42;102748.78;;;24.38;53.00
60015;BME280;45867;52.480;6.056;2023-05-19T09:06:07;102752.59;;;23.97;60.29
60015;BME280;45867;52.480;6.056;2023-05-19T09:08:33;102730.69;;;24.47;54.15
60015;BME280;45867;52.480;6.056;2023-05-19T09:10:59;102743.00;;;24.71;55.54
60015;BME280;45867;52.480;6.056;2023-05-19T09:13:25;102745.75;;;24.31;50.58
60015;BME280;45867;52.480;6.056;2023-05-19T09:15:51;102742.13;;;24.44;51.82
60015;BME280;45867;52.480;6.056;2023-05-19T09:18:17;102747.19;;;25.12;52.66
60015;BME280;45867;52.480;6.056;2023-05-19T09:20:43;102739.66;;;24.25;50.58
60015;BME280;45867;52.480;6.056;2023-05-19T09:23:13;102742.19;;;24.62;46.98
60015;BME280;45867;52.480;6.056;2023-05-19T09:25:49;102742.28;;;25.22;47.21
60015;BME280;45867;52.480;6.056;2023-05-19T09:28:29;102723.19;;;26.30;46.56
60015;BME280;45867;52.480;6.056;2023-05-19T09:33:28;102729.91;;;26.24;41.07
60015;BME280;45867;52.480;6.056;2023-05-19T09:35:54;102730.34;;;27.49;41.23
60015;BME280;45867;52.480;6.056;2023-05-19T09:38:22;102718.91;;;28.13;39.03
60015;BME280;45867;52.480;6.056;2023-05-19T09:40:47;102722.72;;;28.37;39.61
60015;BME280;45867;52.480;6.056;2023-05-19T09:43:14;102722.72;;;28.12;35.11
60015;BME280;45867;52.480;6.056;2023-05-19T09:45:40;102715.69;;;27.86;35.56
60015;BME280;45867;52.480;6.056;2023-05-19T09:48:05;102724.13;;;27.27;34.86
60015;BME280;45867;52.480;6.056;2023-05-19T09:50:31;102727.34;;;27.75;36.67
60015;BME280;45867;52.480;6.056;2023-05-19T09:52:56;102733.25;;;26.60;36.92
60015;BME280;45867;52.480;6.056;2023-05-19T09:55:24;102725.66;;;26.15;38.71
60015;BME280;45867;52.480;6.056;2023-05-19T09:57:54;102728.00;;;26.54;38.62
60015;BME280;45867;52.480;6.056;2023-05-19T10:00:21;102733.78;;;25.67;38.42
60015;BME280;45867;52.480;6.056;2023-05-19T10:02:47;102730.59;;;27.01;38.72
60015;BME280;45867;52.480;6.056;2023-05-19T10:05:16;102721.06;;;28.07;37.94
60015;BME280;45867;52.480;6.056;2023-05-19T10:07:44;102726.66;;;27.32;36.74
60015;BME280;45867;52.480;6.056;2023-05-19T10:10:11;102727.31;;;26.66;35.43
60015;BME280;45867;52.480;6.056;2023-05-19T10:12:38;102715.09;;;26.43;35.31
60015;BME280;45867;52.480;6.056;2023-05-19T10:15:06;102707.97;;;26.00;37.43
60015;BME280;45867;52.480;6.056;2023-05-19T10:17:33;102699.75;;;26.47;38.45
60015;BME280;45867;52.480;6.056;2023-05-19T10:19:59;102708.56;;;26.14;38.46
60015;BME280;45867;52.480;6.056;2023-05-19T10:22:25;102699.31;;;26.06;37.63
60015;BME280;45867;52.480;6.056;2023-05-19T10:24:50;102695.59;;;26.70;37.76
60015;BME280;45867;52.480;6.056;2023-05-19T10:27:16;102700.50;;;26.56;37.56
60015;BME280;45867;52.480;6.056;2023-05-19T10:29:50;102685.50;;;26.20;35.84
60015;BME280;45867;52.480;6.056;2023-05-19T10:32:22;102700.66;;;25.91;37.20
60015;BME280;45867;52.480;6.056;2023-05-19T10:37:45;102694.03;;;26.10;35.96
60015;BME280;45867;52.480;6.056;2023-05-19T10:40:20;102691.47;;;25.58;36.81
60015;BME280;45867;52.480;6.056;2023-05-19T10:45:47;102688.16;;;26.29;37.25
60015;BME280;45867;52.480;6.056;2023-05-19T10:48:14;102688.59;;;26.10;35.52
60015;BME280;45867;52.480;6.056;2023-05-19T10:50:42;102686.78;;;26.73;37.16
60015;BME280;45867;52.480;6.056;2023-05-19T10:53:13;102686.28;;;28.04;36.41
60015;BME280;45867;52.480;6.056;2023-05-19T10:55:45;102686.81;;;28.59;33.69
60015;BME280;45867;52.480;6.056;2023-05-19T10:58:14;102679.00;;;28.86;33.68
60015;BME280;45867;52.480;6.056;2023-05-19T11:00:40;102674.56;;;28.41;33.11
60015;BME280;45867;52.480;6.056;2023-05-19T11:03:12;102669.25;;;28.44;33.53
60015;BME280;45867;52.480;6.056;2023-05-19T11:05:37;102676.81;;;28.51;31.10
60015;BME280;45867;52.480;6.056;2023-05-19T11:08:04;102650.41;;;28.02;32.27
60015;BME280;45867;52.480;6.056;2023-05-19T11:10:32;102645.28;;;27.76;32.40
60015;BME280;45867;52.480;6.056;2023-05-19T11:12:57;102660.69;;;28.58;31.93
60015;BME280;45867;52.480;6.056;2023-05-19T11:15:25;102669.81;;;28.78;32.50
60015;BME280;45867;52.480;6.056;2023-05-19T11:17:51;102663.28;;;29.23;29.84
60015;BME280;45867;52.480;6.056;2023-05-19T11:20:25;102665.53;;;29.05;32.67
60015;BME280;45867;52.480;6.056;2023-05-19T11:23:31;102664.63;;;28.73;32.27
60015;BME280;45867;52.480;6.056;2023-05-19T11:26:00;102649.34;;;28.44;31.97
60015;BME280;45867;52.480;6.056;2023-05-19T11:28:26;102656.38;;;27.59;32.40
60015;BME280;45867;52.480;6.056;2023-05-19T11:30:54;102653.97;;;28.68;32.28
60015;BME280;45867;52.480;6.056;2023-05-19T11:33:21;102647.53;;;28.23;32.50
60015;BME280;45867;52.480;6.056;2023-05-19T11:35:52;102651.88;;;27.87;33.83
60015;BME280;45867;52.480;6.056;2023-05-19T11:38:19;102649.72;;;28.18;32.03
60015;BME280;45867;52.480;6.056;2023-05-19T11:40:44;102645.22;;;28.62;30.81
60015;BME280;45867;52.480;6.056;2023-05-19T11:43:11;102639.50;;;27.90;32.45
60015;BME280;45867;52.480;6.056;2023-05-19T11:45:36;102636.50;;;28.44;32.45
60015;BME280;45867;52.480;6.056;2023-05-19T11:48:05;102641.72;;;27.63;33.37
60015;BME280;45867;52.480;6.056;2023-05-19T11:50:31;102635.84;;;27.16;33.31
60015;BME280;45867;52.480;6.056;2023-05-19T11:52:58;102633.38;;;26.90;34.14
60015;BME280;45867;52.480;6.056;2023-05-19T11:55:24;102632.84;;;27.17;33.46
60015;BME280;45867;52.480;6.056;2023-05-19T11:57:59;102634.09;;;27.32;33.56
60015;BME280;45867;52.480;6.056;2023-05-19T12:00:26;102627.22;;;28.21;34.20
60015;BME280;45867;52.480;6.056;2023-05-19T12:02:52;102630.53;;;28.95;32.76
60015;BME280;45867;52.480;6.056;2023-05-19T12:05:26;102632.78;;;27.63;33.09
60015;BME280;45867;52.480;6.056;2023-05-19T12:07:53;102615.03;;;26.15;34.65
60015;BME280;45867;52.480;6.056;2023-05-19T12:10:22;102625.47;;;26.97;33.73
60015;BME280;45867;52.480;6.056;2023-05-19T12:12:49;102620.22;;;26.29;33.29
60015;BME280;45867;52.480;6.056;2023-05-19T12:15:18;102620.28;;;27.37;34.94
60015;BME280;45867;52.480;6.056;2023-05-19T12:17:45;102610.84;;;28.21;33.79
60015;BME280;45867;52.480;6.056;2023-05-19T12:20:17;102621.44;;;26.82;32.86
60015;BME280;45867;52.480;6.056;2023-05-19T12:22:43;102611.94;;;26.88;35.39
60015;BME280;45867;52.480;6.056;2023-05-19T12:25:09;102611.34;;;27.16;34.48
60015;BME280;45867;52.480;6.056;2023-05-19T12:27:35;102611.25;;;27.12;33.73
60015;BME280;45867;52.480;6.056;2023-05-19T12:30:03;102609.44;;;26.41;35.36
60015;BME280;45867;52.480;6.056;2023-05-19T12:32:32;102616.69;;;25.22;35.17
60015;BME280;45867;52.480;6.056;2023-05-19T12:35:01;102614.56;;;25.36;34.84
60015;BME280;45867;52.480;6.056;2023-05-19T12:37:29;102608.09;;;25.58;34.70
60015;BME280;45867;52.480;6.056;2023-05-19T12:39:55;102619.31;;;25.57;33.78
60015;BME280;45867;52.480;6.056;2023-05-19T12:42:21;102615.25;;;25.24;34.38
60015;BME280;45867;52.480;6.056;2023-05-19T12:44:49;102615.59;;;25.70;35.94
60015;BME280;45867;52.480;6.056;2023-05-19T12:47:18;102608.81;;;26.15;34.25
60015;BME280;45867;52.480;6.056;2023-05-19T12:50:13;102601.00;;;27.42;34.56
60015;BME280;45867;52.480;6.056;2023-05-19T12:52:46;102600.31;;;26.67;31.57
60015;BME280;45867;52.480;6.056;2023-05-19T12:55:13;102600.59;;;26.86;33.29
60015;BME280;45867;52.480;6.056;2023-05-19T12:57:48;102586.81;;;26.28;32.44
60015;BME280;45867;52.480;6.056;2023-05-19T13:00:24;102584.84;;;26.79;34.29
60015;BME280;45867;52.480;6.056;2023-05-19T13:02:58;102589.09;;;27.01;33.86
60015;BME280;45867;52.480;6.056;2023-05-19T13:05:28;102585.75;;;26.84;34.40
60015;BME280;45867;52.480;6.056;2023-05-19T13:07:58;102590.22;;;26.25;35.67
60015;BME280;45867;52.480;6.056;2023-05-19T13:10:24;102590.72;;;26.19;33.86
60015;BME280;45867;52.480;6.056;2023-05-19T13:12:56;102587.47;;;25.66;34.78